createdAt,value
2018-03-27T00:00:22.258Z,75.50
2018-03-27T00:02:49.719Z,75.35
2018-03-27T00:05:17.287Z,75.33
2018-03-27T00:07:44.761Z,75.67
2018-03-27T00:10:12.235Z,75.77
2018-03-27T00:12:40.054Z,75.81
2018-03-27T00:15:07.607Z,75.92
2018-03-27T00:17:35.075Z,75.77
2018-03-27T00:20:02.537Z,75.76
2018-03-27T00:22:30.044Z,75.73
2018-03-27T00:24:57.501Z,75.97
2018-03-27T00:27:36.890Z,75.96
2018-03-27T00:30:16.213Z,75.71
2018-03-27T00:32:55.494Z,75.89
2018-03-27T00:35:34.886Z,76.38
2018-03-27T00:38:14.178Z,76.11
2018-03-27T00:40:42.861Z,76.44
2018-03-27T00:43:13.122Z,76.31
2018-03-27T00:45:40.684Z,76.36
2018-03-27T00:48:08.189Z,76.35
2018-03-27T00:50:35.706Z,76.34
2018-03-27T00:53:03.320Z,76.23
2018-03-27T00:55:30.815Z,76.47
2018-03-27T00:57:58.269Z,76.40
2018-03-27T01:00:25.784Z,76.16
2018-03-27T01:02:53.250Z,76.08
2018-03-27T01:05:20.748Z,76.07
2018-03-27T01:07:48.204Z,75.80
2018-03-27T01:10:15.666Z,75.79
2018-03-27T01:12:43.218Z,75.77
2018-03-27T01:15:10.674Z,75.46
2018-03-27T01:17:38.136Z,75.79
2018-03-27T01:20:05.653Z,75.68
2018-03-27T01:22:33.122Z,75.62
2018-03-27T01:25:00.661Z,75.59
2018-03-27T01:27:28.163Z,75.42
2018-03-27T01:29:55.718Z,75.22
2018-03-27T01:32:23.173Z,75.46
2018-03-27T01:34:50.747Z,75.41
2018-03-27T01:37:18.265Z,75.46
2018-03-27T01:39:45.763Z,75.53
2018-03-27T01:42:13.222Z,75.61
2018-03-27T01:44:40.774Z,75.47
2018-03-27T01:47:08.330Z,74.75
2018-03-27T01:49:35.792Z,74.66
2018-03-27T01:52:03.282Z,74.81
2018-03-27T01:54:30.741Z,75.15
2018-03-27T01:56:58.195Z,75.24
2018-03-27T01:59:25.687Z,75.39
2018-03-27T02:01:53.139Z,75.46
2018-03-27T02:04:20.634Z,75.66
2018-03-27T02:06:48.287Z,75.82
2018-03-27T02:09:15.733Z,75.91
2018-03-27T02:11:48.946Z,75.84
2018-03-27T02:14:22.003Z,76.16
2018-03-27T02:16:55.094Z,76.17
2018-03-27T02:19:28.266Z,76.46
2018-03-27T02:21:55.186Z,77.21
2018-03-27T02:24:26.593Z,77.30
2018-03-27T02:26:54.069Z,77.36
2018-03-27T02:29:21.554Z,77.55
2018-03-27T02:31:49.016Z,77.59
2018-03-27T02:34:16.595Z,77.84
2018-03-27T02:36:44.070Z,77.95
2018-03-27T02:39:11.612Z,77.88
2018-03-27T02:41:39.095Z,77.83
2018-03-27T02:44:06.550Z,78.22
2018-03-27T02:46:34.044Z,78.30
2018-03-27T02:49:01.595Z,78.54
2018-03-27T02:51:29.050Z,78.24
2018-03-27T02:53:56.549Z,78.19
2018-03-27T02:56:24.083Z,78.32
2018-03-27T02:58:51.535Z,78.63
2018-03-27T03:01:19.006Z,78.79
2018-03-27T03:03:46.471Z,78.57
2018-03-27T03:06:13.993Z,78.72
2018-03-27T03:08:41.478Z,78.67
2018-03-27T03:11:08.966Z,78.64
2018-03-27T03:13:36.465Z,78.50
2018-03-27T03:16:03.945Z,78.48
2018-03-27T03:18:31.415Z,78.09
2018-03-27T03:20:58.986Z,77.96
2018-03-27T03:23:26.445Z,77.97
2018-03-27T03:25:53.903Z,77.94
2018-03-27T03:28:21.446Z,77.76
2018-03-27T03:30:48.902Z,77.65
2018-03-27T03:33:16.368Z,77.74
2018-03-27T03:35:43.870Z,77.76
2018-03-27T03:38:11.343Z,77.64
2018-03-27T03:40:38.795Z,77.86
2018-03-27T03:43:06.283Z,79.96
2018-03-27T03:45:33.762Z,78.09
2018-03-27T03:48:01.220Z,77.33
2018-03-27T03:50:28.694Z,76.92
2018-03-27T03:52:56.172Z,76.76
2018-03-27T03:55:23.646Z,76.49
2018-03-27T03:57:51.198Z,76.18
2018-03-27T04:00:18.762Z,76.19
2018-03-27T04:02:46.254Z,76.37
2018-03-27T04:05:13.724Z,77.09
2018-03-27T04:07:41.229Z,77.03
2018-03-27T04:10:08.690Z,76.71
2018-03-27T04:12:36.152Z,76.83
2018-03-27T04:15:03.714Z,77.01
2018-03-27T04:17:31.163Z,77.12
2018-03-27T04:19:58.626Z,77.32
2018-03-27T04:22:26.106Z,77.77
2018-03-27T04:24:53.562Z,78.10
2018-03-27T04:27:21.022Z,78.50
2018-03-27T04:29:48.502Z,78.79
2018-03-27T04:32:15.962Z,79.04
2018-03-27T04:34:43.418Z,79.44
2018-03-27T04:37:10.909Z,79.71
2018-03-27T04:39:38.377Z,79.93
2018-03-27T04:42:05.842Z,79.96
2018-03-27T04:44:33.391Z,79.92
2018-03-27T04:47:00.901Z,79.69
2018-03-27T04:49:28.521Z,79.91
2018-03-27T04:51:56.009Z,79.95
2018-03-27T04:54:23.470Z,79.99
2018-03-27T04:56:50.927Z,80.07
2018-03-27T04:59:18.425Z,80.30
2018-03-27T05:01:45.877Z,80.35
2018-03-27T05:04:13.365Z,80.37
2018-03-27T05:06:40.840Z,79.95
2018-03-27T05:09:08.395Z,79.65
2018-03-27T05:11:35.883Z,79.23
2018-03-27T05:14:03.444Z,79.75
2018-03-27T05:16:30.957Z,80.07
2018-03-27T05:18:58.506Z,80.47
2018-03-27T05:21:25.978Z,81.02
2018-03-27T05:23:53.534Z,80.89
2018-03-27T05:26:21.009Z,80.76
2018-03-27T05:28:48.464Z,80.76
2018-03-27T05:31:16.006Z,81.28
2018-03-27T05:33:43.504Z,81.58
2018-03-27T05:36:10.984Z,81.31
2018-03-27T05:38:38.479Z,81.30
2018-03-27T05:41:05.978Z,81.65
2018-03-27T05:43:33.513Z,81.67
2018-03-27T05:46:00.993Z,81.59
2018-03-27T05:48:28.546Z,81.51
2018-03-27T05:50:56.092Z,81.28
2018-03-27T05:53:23.640Z,81.01
2018-03-27T05:55:51.147Z,80.99
2018-03-27T05:58:18.692Z,80.74
2018-03-27T06:00:46.203Z,80.68
2018-03-27T06:03:13.717Z,80.66
2018-03-27T06:05:41.229Z,80.45
2018-03-27T06:08:08.697Z,80.04
2018-03-27T06:10:36.153Z,79.60
2018-03-27T06:13:03.646Z,78.98
2018-03-27T06:15:31.141Z,78.92
2018-03-27T06:17:58.594Z,78.47
2018-03-27T06:20:26.065Z,78.06
2018-03-27T06:22:53.527Z,77.90
2018-03-27T06:25:21.050Z,77.69
2018-03-27T06:27:48.582Z,77.50
2018-03-27T06:30:16.142Z,77.55
2018-03-27T06:32:43.690Z,77.38
2018-03-27T06:35:11.146Z,77.55
2018-03-27T06:37:38.596Z,77.52
2018-03-27T06:40:06.131Z,77.40
2018-03-27T06:42:33.614Z,76.70
2018-03-27T06:45:01.092Z,76.25
2018-03-27T06:47:28.545Z,76.34
2018-03-27T06:49:56.040Z,75.63
2018-03-27T06:52:23.491Z,74.88
2018-03-27T06:54:50.953Z,74.09
2018-03-27T06:57:18.430Z,73.27
2018-03-27T06:59:45.884Z,72.54
2018-03-27T07:02:13.362Z,71.77
2018-03-27T07:04:40.891Z,72.12
2018-03-27T07:07:08.372Z,71.73
2018-03-27T07:09:35.868Z,71.40
2018-03-27T07:12:03.357Z,71.18
2018-03-27T07:14:30.814Z,71.32
2018-03-27T07:16:58.301Z,70.96
2018-03-27T07:19:25.847Z,70.79
2018-03-27T07:21:53.330Z,70.19
2018-03-27T07:24:20.862Z,69.68
2018-03-27T07:26:48.355Z,70.28
2018-03-27T07:29:15.815Z,70.74
2018-03-27T07:31:43.271Z,70.18
2018-03-27T07:34:10.793Z,69.05
2018-03-27T07:36:38.257Z,67.45
2018-03-27T07:39:05.746Z,67.24
2018-03-27T07:41:33.269Z,67.30
2018-03-27T07:44:00.739Z,67.47
2018-03-27T07:46:28.231Z,67.08
2018-03-27T07:48:55.729Z,67.26
2018-03-27T07:51:23.194Z,66.22
2018-03-27T07:53:50.651Z,65.21
2018-03-27T07:56:18.139Z,64.30
2018-03-27T07:58:45.671Z,63.66
2018-03-27T08:01:13.138Z,63.36
2018-03-27T08:03:40.638Z,64.15
2018-03-27T08:06:08.102Z,65.67
2018-03-27T08:08:35.566Z,65.89
2018-03-27T08:11:03.066Z,65.81
2018-03-27T08:13:30.522Z,64.89
2018-03-27T08:15:58.124Z,64.92
2018-03-27T08:18:25.656Z,64.36
2018-03-27T08:20:53.197Z,64.58
2018-03-27T08:23:20.686Z,65.28
2018-03-27T08:25:48.155Z,65.92
2018-03-27T08:28:15.611Z,66.92
2018-03-27T08:30:43.088Z,67.23
2018-03-27T08:33:10.555Z,68.22
2018-03-27T08:35:38.024Z,68.13
2018-03-27T08:38:05.550Z,67.89
2018-03-27T08:40:33.077Z,66.70
2018-03-27T08:43:00.673Z,64.85
2018-03-27T08:45:28.147Z,64.58
2018-03-27T08:47:55.652Z,63.68
2018-03-27T08:50:23.150Z,62.86
2018-03-27T08:52:50.698Z,62.15
2018-03-27T08:55:18.185Z,61.39
2018-03-27T08:57:45.663Z,61.31
2018-03-27T09:00:13.118Z,61.41
2018-03-27T09:02:40.694Z,61.71
2018-03-27T09:05:08.181Z,61.49
2018-03-27T09:07:35.698Z,61.65
2018-03-27T09:10:03.186Z,62.27
2018-03-27T09:12:30.666Z,63.56
2018-03-27T09:14:58.123Z,63.45
2018-03-27T09:17:25.587Z,63.94
2018-03-27T09:19:53.110Z,64.13
2018-03-27T09:22:20.587Z,63.83
2018-03-27T09:24:48.047Z,63.58
2018-03-27T09:27:15.521Z,63.25
2018-03-27T09:29:42.989Z,62.97
2018-03-27T09:32:10.449Z,62.22
2018-03-27T09:34:37.929Z,59.50
2018-03-27T09:37:05.386Z,57.08
2018-03-27T09:39:32.845Z,55.93
2018-03-27T09:42:00.330Z,54.12
2018-03-27T09:44:27.863Z,53.68
2018-03-27T09:46:55.321Z,53.41
2018-03-27T09:49:22.804Z,54.07
2018-03-27T09:51:50.290Z,55.04
2018-03-27T09:54:17.845Z,55.65
2018-03-27T09:56:45.355Z,55.55
2018-03-27T09:59:12.833Z,55.22
2018-03-27T10:01:40.290Z,55.64
2018-03-27T10:04:07.780Z,53.80
2018-03-27T10:06:35.284Z,54.34
2018-03-27T10:09:02.745Z,54.17
2018-03-27T10:11:30.242Z,53.46
2018-03-27T10:13:57.714Z,53.01
2018-03-27T10:16:25.165Z,51.54
2018-03-27T10:18:52.677Z,50.78
2018-03-27T10:21:20.140Z,49.77
2018-03-27T10:23:47.636Z,48.46
2018-03-27T10:26:15.156Z,48.26
2018-03-27T10:28:42.715Z,47.84
2018-03-27T10:31:10.212Z,47.98
2018-03-27T10:33:37.773Z,47.02
2018-03-27T10:36:05.277Z,46.55
2018-03-27T10:38:32.860Z,46.22
2018-03-27T10:41:00.354Z,45.42
2018-03-27T10:43:27.809Z,44.43
2018-03-27T10:45:55.340Z,43.41
2018-03-27T10:48:22.810Z,45.84
2018-03-27T10:50:50.258Z,45.83
2018-03-27T10:53:17.747Z,45.10
2018-03-27T10:55:45.291Z,45.47
2018-03-27T10:58:12.749Z,46.19
2018-03-27T11:00:40.226Z,46.39
2018-03-27T11:03:07.682Z,46.66
2018-03-27T11:05:35.163Z,46.71
2018-03-27T11:08:02.650Z,48.23
2018-03-27T11:10:30.136Z,49.32
2018-03-27T11:12:57.603Z,49.97
2018-03-27T11:15:25.102Z,50.07
2018-03-27T11:17:52.579Z,49.53
2018-03-27T11:20:20.049Z,49.09
2018-03-27T11:22:47.517Z,49.70
2018-03-27T11:25:15.081Z,49.76
2018-03-27T11:27:42.551Z,49.86
2018-03-27T11:30:10.006Z,50.17
2018-03-27T11:32:37.502Z,49.19
2018-03-27T11:35:04.958Z,49.03
2018-03-27T11:37:32.418Z,49.08
2018-03-27T11:39:59.898Z,49.83
2018-03-27T11:42:27.350Z,49.90
2018-03-27T11:44:54.802Z,49.96
2018-03-27T11:47:22.278Z,49.77
2018-03-27T11:49:49.830Z,49.60
2018-03-27T11:52:17.312Z,49.18
2018-03-27T11:54:44.788Z,48.79
2018-03-27T11:57:12.246Z,48.25
2018-03-27T11:59:39.704Z,48.13
2018-03-27T12:02:07.203Z,47.72
2018-03-27T12:04:34.658Z,47.60
2018-03-27T12:07:02.258Z,46.92
2018-03-27T12:09:29.738Z,46.19
2018-03-27T12:11:57.198Z,46.22
2018-03-27T12:14:24.737Z,46.07
2018-03-27T12:16:52.194Z,45.57
2018-03-27T12:19:19.654Z,45.18
2018-03-27T12:21:47.146Z,45.14
2018-03-27T12:24:14.611Z,45.79
2018-03-27T12:26:42.072Z,45.45
2018-03-27T12:29:09.630Z,45.10
2018-03-27T12:31:37.095Z,44.81
2018-03-27T12:34:04.651Z,44.27
2018-03-27T12:36:32.314Z,43.86
2018-03-27T12:38:59.946Z,43.81
2018-03-27T12:41:27.444Z,44.22
2018-03-27T12:43:54.943Z,44.09
2018-03-27T12:46:22.401Z,44.35
2018-03-27T12:48:49.861Z,44.08
2018-03-27T12:51:17.382Z,44.68
2018-03-27T12:53:44.853Z,44.72
2018-03-27T12:56:12.320Z,44.79
2018-03-27T12:58:39.941Z,44.94
2018-03-27T13:01:07.416Z,43.80
2018-03-27T13:03:34.867Z,43.47
2018-03-27T13:06:02.370Z,43.67
2018-03-27T13:08:29.840Z,44.31
2018-03-27T13:10:57.306Z,44.66
2018-03-27T13:13:24.893Z,44.95
2018-03-27T13:15:52.350Z,44.93
2018-03-27T13:18:19.925Z,45.56
2018-03-27T13:20:47.390Z,45.72
2018-03-27T13:23:14.851Z,45.56
2018-03-27T13:25:42.382Z,45.72
2018-03-27T13:28:09.834Z,44.99
2018-03-27T13:30:37.277Z,44.84
2018-03-27T13:33:04.734Z,45.00
2018-03-27T13:35:32.318Z,45.21
2018-03-27T13:37:59.804Z,44.82
2018-03-27T13:40:27.318Z,45.42
2018-03-27T13:42:54.797Z,45.67
2018-03-27T13:45:22.339Z,45.51
2018-03-27T13:47:49.813Z,45.77
2018-03-27T13:50:17.314Z,45.78
2018-03-27T13:52:44.870Z,45.48
2018-03-27T13:55:12.323Z,44.55
2018-03-27T13:57:39.845Z,42.86
2018-03-27T14:00:07.395Z,42.59
2018-03-27T14:02:34.847Z,42.27
2018-03-27T14:05:02.421Z,41.83
2018-03-27T14:07:29.882Z,41.09
2018-03-27T14:09:57.377Z,40.18
2018-03-27T14:12:24.838Z,40.27
2018-03-27T14:14:52.298Z,41.17
2018-03-27T14:17:19.785Z,41.69
2018-03-27T14:19:47.268Z,42.32
2018-03-27T14:22:15.584Z,42.79
2018-03-27T14:24:43.082Z,43.02
2018-03-27T14:27:10.546Z,43.37
2018-03-27T14:29:38.015Z,44.77
2018-03-27T14:32:05.498Z,44.82
2018-03-27T14:34:32.958Z,44.72
2018-03-27T14:37:00.412Z,44.30
2018-03-27T14:39:27.899Z,43.71
2018-03-27T14:41:55.349Z,43.04
2018-03-27T14:44:22.837Z,42.45
2018-03-27T14:46:50.365Z,42.77
2018-03-27T14:49:17.786Z,42.48
2018-03-27T14:51:45.277Z,42.36
2018-03-27T14:54:12.838Z,42.18
2018-03-27T14:56:40.306Z,42.44
2018-03-27T14:59:07.758Z,42.85
2018-03-27T15:01:35.243Z,43.31
2018-03-27T15:04:02.764Z,43.20
2018-03-27T15:06:30.228Z,43.51
2018-03-27T15:08:57.712Z,43.79
2018-03-27T15:11:25.178Z,44.08
2018-03-27T15:13:52.633Z,43.73
2018-03-27T15:16:20.133Z,43.83
2018-03-27T15:18:47.738Z,43.51
2018-03-27T15:21:15.251Z,43.37
2018-03-27T15:23:42.840Z,43.86
2018-03-27T15:26:10.304Z,43.93
2018-03-27T15:28:37.751Z,44.01
2018-03-27T15:31:05.266Z,44.42
2018-03-27T15:33:32.873Z,44.57
2018-03-27T15:36:00.428Z,45.25
2018-03-27T15:38:27.890Z,45.83
2018-03-27T15:40:55.343Z,45.73
2018-03-27T15:43:22.824Z,45.50
2018-03-27T15:45:50.294Z,46.10
2018-03-27T15:48:17.746Z,45.55
2018-03-27T15:50:45.326Z,45.62
2018-03-27T15:53:12.777Z,46.11
2018-03-27T15:55:40.310Z,46.07
2018-03-27T15:58:07.785Z,46.64
2018-03-27T16:00:35.355Z,46.58
2018-03-27T16:03:02.863Z,46.77
2018-03-27T16:05:30.378Z,45.77
2018-03-27T16:07:57.940Z,44.87
2018-03-27T16:10:25.414Z,43.74
2018-03-27T16:12:52.878Z,43.40
2018-03-27T16:15:20.366Z,43.02
2018-03-27T16:17:47.899Z,43.37
2018-03-27T16:20:15.358Z,42.92
2018-03-27T16:22:42.825Z,42.06
2018-03-27T16:25:10.291Z,43.18
2018-03-27T16:27:37.783Z,44.87
2018-03-27T16:30:05.310Z,46.12
2018-03-27T16:32:32.766Z,46.38
2018-03-27T16:35:00.281Z,47.20
2018-03-27T16:37:27.776Z,47.89
2018-03-27T16:39:55.226Z,48.34
2018-03-27T16:42:22.706Z,48.79
2018-03-27T16:44:50.158Z,49.94
2018-03-27T16:47:17.606Z,50.66
2018-03-27T16:49:45.096Z,51.30
2018-03-27T16:52:12.569Z,51.72
2018-03-27T16:54:40.027Z,52.17
2018-03-27T16:57:07.591Z,52.51
2018-03-27T16:59:35.057Z,52.86
2018-03-27T17:02:02.518Z,54.38
2018-03-27T17:04:30.066Z,53.09
2018-03-27T17:06:57.515Z,53.01
2018-03-27T17:09:25.001Z,53.57
2018-03-27T17:11:52.539Z,53.71
2018-03-27T17:14:20.002Z,54.12
2018-03-27T17:16:47.458Z,53.78
2018-03-27T17:19:14.964Z,54.15
2018-03-27T17:21:42.466Z,54.58
2018-03-27T17:24:10.058Z,54.42
2018-03-27T17:26:37.526Z,54.62
2018-03-27T17:29:04.986Z,54.67
2018-03-27T17:31:32.523Z,54.96
2018-03-27T17:33:59.964Z,55.15
2018-03-27T17:36:27.674Z,55.28
2018-03-27T17:38:55.158Z,56.04
2018-03-27T17:41:22.644Z,55.87
2018-03-27T17:43:50.102Z,55.87
2018-03-27T17:46:17.595Z,55.91
2018-03-27T17:48:45.079Z,56.06
2018-03-27T17:51:12.580Z,56.21
2018-03-27T17:53:40.340Z,56.76
2018-03-27T17:56:07.799Z,56.64
2018-03-27T17:58:35.268Z,56.58
2018-03-27T18:01:02.773Z,56.65
2018-03-27T18:03:30.234Z,56.90
2018-03-27T18:05:57.684Z,56.80
2018-03-27T18:08:25.156Z,56.94
2018-03-27T18:10:52.608Z,57.34
2018-03-27T18:13:20.146Z,57.38
2018-03-27T18:15:47.607Z,57.51
2018-03-27T18:18:15.070Z,57.83
2018-03-27T18:20:42.543Z,58.19
2018-03-27T18:23:10.030Z,58.08
2018-03-27T18:25:37.483Z,57.99
2018-03-27T18:28:05.551Z,58.00
2018-03-27T18:30:33.022Z,58.29
2018-03-27T18:33:00.474Z,58.51
2018-03-27T18:35:28.033Z,58.62
2018-03-27T18:37:55.494Z,58.98
2018-03-27T18:40:23.049Z,60.15
2018-03-27T18:42:50.523Z,59.32
2018-03-27T18:45:18.006Z,59.46
2018-03-27T18:47:45.474Z,59.18
2018-03-27T18:50:12.942Z,59.31
2018-03-27T18:52:41.162Z,59.65
2018-03-27T18:55:08.632Z,59.46
2018-03-27T18:57:36.367Z,59.32
2018-03-27T19:00:03.964Z,59.40
2018-03-27T19:02:31.447Z,59.48
2018-03-27T19:04:58.955Z,59.64
2018-03-27T19:07:26.419Z,59.76
2018-03-27T19:09:53.875Z,59.68
2018-03-27T19:12:21.354Z,59.61
2018-03-27T19:14:48.846Z,59.86
2018-03-27T19:17:17.164Z,60.00
2018-03-27T19:19:44.643Z,60.00
2018-03-27T19:22:12.100Z,60.11
2018-03-27T19:24:39.566Z,60.36
2018-03-27T19:27:07.072Z,60.34
2018-03-27T19:29:34.546Z,60.57
2018-03-27T19:32:02.765Z,60.44
2018-03-27T19:34:30.257Z,60.40
2018-03-27T19:36:58.657Z,60.25
2018-03-27T19:39:26.118Z,60.60
2018-03-27T19:41:53.662Z,60.88
2018-03-27T19:44:21.239Z,60.87
2018-03-27T19:46:49.694Z,61.20
2018-03-27T19:49:17.175Z,61.33
2018-03-27T19:51:44.644Z,61.62
2018-03-27T19:54:12.173Z,61.99
2018-03-27T19:56:39.659Z,62.26
2018-03-27T19:59:07.177Z,62.68
2018-03-27T20:01:34.671Z,62.85
2018-03-27T20:04:02.147Z,63.23
2018-03-27T20:06:29.619Z,63.41
2018-03-27T20:08:57.117Z,63.72
2018-03-27T20:11:24.584Z,64.09
2018-03-27T20:13:52.040Z,63.80
2018-03-27T20:16:19.541Z,63.72
2018-03-27T20:18:47.063Z,63.64
2018-03-27T20:21:14.564Z,63.98
2018-03-27T20:23:42.067Z,64.10
2018-03-27T20:26:09.542Z,64.55
2018-03-27T20:28:37.048Z,64.48
2018-03-27T20:31:04.607Z,64.70
2018-03-27T20:33:32.075Z,64.73
2018-03-27T20:35:59.592Z,64.91
2018-03-27T20:38:27.042Z,65.45
2018-03-27T20:40:54.522Z,65.50
2018-03-27T20:43:22.051Z,65.71
2018-03-27T20:45:49.502Z,65.63
2018-03-27T20:48:17.000Z,65.87
2018-03-27T20:50:44.490Z,65.91
2018-03-27T20:53:11.946Z,65.90
2018-03-27T20:55:39.431Z,65.89
2018-03-27T20:58:06.982Z,66.18
2018-03-27T21:00:34.597Z,66.10
2018-03-27T21:03:02.154Z,66.07
2018-03-27T21:05:29.654Z,66.23
2018-03-27T21:07:57.135Z,66.15
2018-03-27T21:10:24.585Z,66.19
2018-03-27T21:12:52.115Z,66.30
2018-03-27T21:15:19.609Z,66.53
2018-03-27T21:17:47.057Z,66.29
2018-03-27T21:20:14.611Z,66.47
2018-03-27T21:22:42.095Z,66.55
2018-03-27T21:25:09.603Z,65.89
2018-03-27T21:27:37.080Z,65.89
2018-03-27T21:30:04.590Z,66.22
2018-03-27T21:32:32.121Z,66.10
2018-03-27T21:34:59.597Z,65.95
2018-03-27T21:37:27.063Z,65.95
2018-03-27T21:39:54.560Z,66.19
2018-03-27T21:42:22.034Z,66.20
2018-03-27T21:44:49.496Z,66.06
2018-03-27T21:47:16.978Z,66.05
2018-03-27T21:49:44.471Z,66.10
2018-03-27T21:52:12.085Z,66.48
2018-03-27T21:54:39.627Z,66.37
2018-03-27T21:57:07.205Z,66.66
2018-03-27T21:59:34.677Z,66.88
2018-03-27T22:02:02.204Z,66.73
2018-03-27T22:04:29.769Z,66.66
2018-03-27T22:06:57.313Z,66.71
2018-03-27T22:09:24.828Z,67.10
2018-03-27T22:11:52.376Z,67.18
2018-03-27T22:14:19.835Z,67.26
2018-03-27T22:16:47.403Z,67.41
2018-03-27T22:19:14.959Z,67.71
2018-03-27T22:21:42.425Z,67.32
2018-03-27T22:24:09.887Z,67.44
2018-03-27T22:26:37.374Z,67.58
2018-03-27T22:29:04.893Z,67.76
2018-03-27T22:31:32.398Z,67.69
2018-03-27T22:33:59.924Z,68.85
2018-03-27T22:36:27.379Z,68.02
2018-03-27T22:38:54.922Z,68.11
2018-03-27T22:41:22.419Z,68.14
2018-03-27T22:43:49.874Z,67.98
2018-03-27T22:46:17.334Z,68.06
2018-03-27T22:48:44.826Z,68.38
2018-03-27T22:51:12.294Z,68.25
2018-03-27T22:53:39.815Z,68.52
2018-03-27T22:56:07.321Z,68.57
2018-03-27T22:58:34.790Z,68.42
2018-03-27T23:01:02.245Z,68.85
2018-03-27T23:03:29.758Z,69.10
2018-03-27T23:05:57.306Z,68.38
2018-03-27T23:08:24.870Z,68.77
2018-03-27T23:10:52.427Z,68.84
2018-03-27T23:13:19.986Z,68.80
2018-03-27T23:15:47.441Z,69.15
2018-03-27T23:18:15.003Z,69.22
2018-03-27T23:20:42.465Z,69.47
2018-03-27T23:23:09.943Z,69.53
2018-03-27T23:25:37.427Z,69.84
2018-03-27T23:28:04.887Z,69.81
2018-03-27T23:30:32.349Z,69.87
2018-03-27T23:32:59.835Z,69.94
2018-03-27T23:35:29.355Z,70.36
2018-03-27T23:37:56.886Z,69.86
2018-03-27T23:40:24.374Z,70.01
2018-03-27T23:42:51.838Z,70.30
2018-03-27T23:45:19.290Z,70.55
2018-03-27T23:47:46.785Z,70.55
2018-03-27T23:50:14.249Z,70.75
2018-03-27T23:52:41.721Z,70.68
2018-03-27T23:55:09.227Z,70.71
2018-03-27T23:57:36.685Z,70.94
